Airfield :
LOGIN :

Register | Disclaimer

   EN    FR    IT 

 










Legend :    VFR   Marginal VFR   IFR   Intensive IFR   Very Intensive IFR
Visi :
Ceiling :
>= 8 km
>= 3000ft
5 to 8 km
1000 to 3000 ft
1500m to 5 km
500 to 1000 ft
800 to 1500m
200 to 500 ft
< 800m
< 200 ft
Symbols :   Thunderstorms  Fog  Heavy snow  Heavy precipitations  Wind > 20 kt
SIGMETs :     Misc.  Thunderstorms  Icing  Turbulence  Mountain Waves  Volcanic Ashes






- Airport Elevation : 1058 ft
- IATA code : SCN


EDDR - Saarbrücken

CURRENT METAR :
  • 270820Z 20011KT 4000 -SN FEW005 BKN008 01/00 Q1004 TEMPO 2500

EXPIRED METARs :
  • 270750Z 20011KT 170V230 9999 -SN FEW006 BKN008 01/00 Q1005 TEMPO 4000
  • 270720Z 21008KT 160V240 9999 FEW006 BKN007 01/00 Q1005 NOSIG
  • 270650Z 21011KT 9999 FEW006 BKN008 01/00 Q1006 NOSIG
  • 270620Z 21010KT 180V240 9999 -RA BKN008 01/00 Q1006 TEMPO BKN012
  • 270550Z 21010KT 9999 -RA BKN008 01/00 Q1007 TEMPO BKN012

TAF AMD TAF EDDR
Valid from the 27 at 07:00 until the 28 at 06:00 UTC


270755Z 2707/2806 22009KT 9999 SCT008 BKN015
TEMPO 2708/2716 2500 -SN BKN005
BECMG 2709/2712 15011KT
PROB40
TEMPO 2709/2716 0800 SN OVC002
BECMG 2714/2716 26015G25KT 4000 -RASN OVC004
TEMPO 2716/2721 29020G35KT
BECMG 2718/2722 6000 SCT004 BKN015



MET'MAP, your aeronautical weather chart ! - Copyright ORBIFLY December 2007 - Disclaimer

ORBIFLY MET'MAP TEAM :

Programming & Development : Alexandra Zaïnal
Concept & original design : Baudouin d'Aumeries
Assistance for programming : Marc-Olivier Méhu
Technical & hardware support : Manuel Goepfert

Contact : metmap@orbifly.com




SOURCES & CREDITS :

   NOAA